Time;durP1;ratioP1;P1;durP2;ratioP2;P2;SDS_P1;SDS_P2;PMS_P1;PMS_P2;Temp;Humidity;BMP_temperature;BMP_pressure;BME280_temperature;BME280_humidity;BME280_pressure;Samples;Min_cycle;Max_cycle;Signal;HPM_P1;HPM_P2
2023/08/02 00:01:52;;;;;;;4.33;4.03;;;;;;;-143.84;85.25;45089.06;4990220;28;20434;-55
2023/08/02 00:04:20;;;;;;;4.63;4.33;;;;;;;-143.84;85.50;45085.25;4990264;28;20445;-55
2023/08/02 00:06:47;;;;;;;4.17;3.57;;;;;;;-143.84;85.62;45089.06;4989733;28;20499;-55
2023/08/02 00:09:15;;;;;;;4.20;3.80;;;;;;;-143.84;85.61;45100.47;4989909;28;20442;-55
2023/08/02 00:11:42;;;;;;;4.60;4.20;;;;;;;-143.84;85.80;45090.97;4990027;28;20520;-55
2023/08/02 00:14:09;;;;;;;6.53;4.63;;;;;;;-143.84;85.88;45068.13;4990027;28;20504;-55
2023/08/02 00:16:37;;;;;;;4.60;4.30;;;;;;;-143.84;85.94;45108.09;4989917;28;20487;-55
2023/08/02 00:19:04;;;;;;;3.80;3.60;;;;;;;-143.84;86.14;45111.91;4989964;28;20440;-55
2023/08/02 00:21:31;;;;;;;4.87;3.83;;;;;;;-143.84;86.52;45071.91;4989862;28;20452;-55
2023/08/02 00:23:58;;;;;;;4.10;3.80;;;;;;;-143.84;86.74;45094.78;4990689;28;20438;-58
2023/08/02 00:26:28;;;;;;;5.83;4.13;;;;;;;-143.84;86.91;45090.97;4990883;28;20712;-58
2023/08/02 00:28:55;;;;;;;6.67;4.20;;;;;;;-143.84;87.03;45090.97;4990515;28;20487;-58
2023/08/02 00:31:22;;;;;;;4.47;4.17;;;;;;;-143.84;87.25;45068.13;4990868;28;20455;-58
2023/08/02 00:33:50;;;;;;;4.73;4.37;;;;;;;-143.84;87.03;45094.78;4990350;28;20443;-58
2023/08/02 00:36:17;;;;;;;4.80;4.50;;;;;;;-143.84;87.39;45117.63;4989952;28;21039;-58
2023/08/02 00:38:44;;;;;;;4.00;3.67;;;;;;;-143.84;87.39;45102.38;4990348;28;20446;-58
2023/08/02 00:41:11;;;;;;;4.30;4.00;;;;;;;-143.84;87.62;45110.00;4989968;28;20442;-58
2023/08/02 00:43:44;;;;;;;4.70;4.40;;;;;;;-143.84;87.82;45106.19;4989906;28;20444;-58
2023/08/02 00:46:11;;;;;;;4.73;4.43;;;;;;;-143.84;88.22;45079.53;4990568;28;20838;-58
2023/08/02 00:48:39;;;;;;;4.17;3.97;;;;;;;-143.84;88.39;45087.16;4990404;28;20464;-58
2023/08/02 00:51:08;;;;;;;5.73;4.77;;;;;;;-143.84;88.90;45102.38;4989960;28;20825;-58
2023/08/02 00:53:36;;;;;;;8.83;5.40;;;;;;;-143.84;89.11;45092.88;4990068;28;20444;-58
2023/08/02 00:56:04;;;;;;;6.30;4.60;;;;;;;-143.84;89.41;45094.78;4990051;28;20948;-58
2023/08/02 00:58:31;;;;;;;5.90;4.20;;;;;;;-143.84;89.64;45096.66;4989747;28;20543;-59
2023/08/02 01:01:06;;;;;;;5.77;5.27;;;;;;;-143.84;89.59;45119.53;4990160;28;20442;-58
2023/08/02 01:03:34;;;;;;;5.07;4.63;;;;;;;-143.84;89.47;45127.13;4989901;28;20517;-58
2023/08/02 01:06:11;;;;;;;9.53;5.10;;;;;;;-143.84;89.33;45081.44;4989504;28;20496;-58
2023/08/02 01:08:42;;;;;;;12.00;5.57;;;;;;;-143.84;89.42;45110.00;4989924;28;20449;-58
2023/08/02 01:11:18;;;;;;;6.67;4.80;;;;;;;-143.84;89.47;45115.72;4990246;28;20499;-58
2023/08/02 01:13:50;;;;;;;5.47;5.00;;;;;;;-143.84;89.78;45113.81;4989812;28;20504;-58
2023/08/02 01:16:23;;;;;;;9.00;5.00;;;;;;;-143.84;90.04;45085.25;4989886;28;20505;-58
2023/08/02 01:18:50;;;;;;;6.73;5.90;;;;;;;-143.84;90.86;45094.78;4989872;28;20493;-58
2023/08/02 01:21:19;;;;;;;5.80;5.30;;;;;;;-143.84;90.93;45104.28;4989870;28;20446;-58
2023/08/02 01:23:46;;;;;;;8.90;5.40;;;;;;;-143.84;91.35;45098.56;4990367;28;21252;-58
2023/08/02 01:26:14;;;;;;;6.43;5.63;;;;;;;-143.84;91.71;45092.88;4990078;28;20451;-58
2023/08/02 01:28:45;;;;;;;6.00;5.50;;;;;;;-143.84;91.86;45108.09;4989819;28;20435;-58
2023/08/02 01:31:15;;;;;;;5.63;5.03;;;;;;;-143.84;92.07;45106.19;4989936;28;20446;-58
2023/08/02 01:33:49;;;;;;;6.97;5.47;;;;;;;-143.84;92.14;45111.91;4989854;28;20503;-58
2023/08/02 01:36:18;;;;;;;7.57;5.10;;;;;;;-143.84;92.14;45102.38;4989843;28;20962;-58
2023/08/02 01:38:45;;;;;;;8.90;5.80;;;;;;;-143.84;92.27;45079.53;4989770;28;20532;-58
2023/08/02 01:41:12;;;;;;;5.70;5.33;;;;;;;-143.84;92.80;45110.00;4989700;28;20871;-58
2023/08/02 01:43:40;;;;;;;11.93;5.40;;;;;;;-143.84;92.89;45106.19;4990144;28;20434;-58
2023/08/02 01:46:07;;;;;;;9.03;6.23;;;;;;;-143.84;93.08;45094.78;4989707;28;20454;-58
2023/08/02 01:48:34;;;;;;;6.33;5.83;;;;;;;-143.84;92.93;45075.72;4989560;28;20854;-58
2023/08/02 01:51:01;;;;;;;5.17;4.77;;;;;;;-143.84;92.49;45096.66;4989649;28;20446;-58
2023/08/02 01:53:29;;;;;;;8.73;6.20;;;;;;;-143.84;92.64;45079.53;4989894;28;20429;-58
2023/08/02 01:55:56;;;;;;;5.10;4.70;;;;;;;-143.84;92.77;45110.00;4991164;28;20455;-58
2023/08/02 01:58:23;;;;;;;5.57;5.07;;;;;;;-143.84;92.40;45115.72;4993544;28;21081;-58
2023/08/02 02:00:51;;;;;;;5.60;5.10;;;;;;;-143.84;92.40;45108.09;4993405;28;20448;-58
2023/08/02 02:03:18;;;;;;;4.90;4.60;;;;;;;-143.84;92.20;45106.19;4993339;28;20437;-58
2023/08/02 02:05:53;;;;;;;5.70;5.17;;;;;;;-143.84;91.68;45110.00;4993429;28;20477;-58
2023/08/02 02:08:20;;;;;;;4.73;4.43;;;;;;;-143.84;91.48;45110.00;4993058;28;20442;-58
2023/08/02 02:10:52;;;;;;;4.80;4.50;;;;;;;-143.84;91.14;45115.72;4992886;28;20450;-58
2023/08/02 02:13:20;;;;;;;5.70;5.13;;;;;;;-143.84;90.79;45110.00;4993107;28;20812;-58
2023/08/02 02:15:47;;;;;;;5.30;4.80;;;;;;;-143.84;90.82;45098.56;4993192;28;20458;-58
2023/08/02 02:18:14;;;;;;;4.57;4.17;;;;;;;-143.84;90.46;45083.34;4992840;28;21328;-58
2023/08/02 02:20:42;;;;;;;9.40;5.00;;;;;;;-143.84;90.45;45100.47;4993031;28;20465;-58
2023/08/02 02:23:09;;;;;;;5.33;4.90;;;;;;;-143.84;90.24;45123.34;4992802;28;20443;-58
2023/08/02 02:25:36;;;;;;;5.53;4.70;;;;;;;-143.84;90.00;45121.44;4992935;28;20444;-58
2023/08/02 02:28:05;;;;;;;5.50;5.10;;;;;;;-143.84;89.98;45134.75;4992447;28;20513;-58
2023/08/02 02:30:32;;;;;;;6.30;5.60;;;;;;;-143.84;90.24;45129.03;4992601;28;20519;-59
2023/08/02 02:32:59;;;;;;;10.63;5.60;;;;;;;-143.84;90.49;45070.00;4992562;28;20441;-58
2023/08/02 02:35:27;;;;;;;9.80;5.67;;;;;;;-143.84;90.43;45110.00;4992718;28;20503;-58
2023/08/02 02:37:54;;;;;;;7.87;5.93;;;;;;;-143.84;90.66;45110.00;4992410;28;20484;-58
2023/08/02 02:40:21;;;;;;;9.00;4.93;;;;;;;-143.84;90.61;45111.91;4992366;28;20495;-58
2023/08/02 02:42:48;;;;;;;5.30;4.90;;;;;;;-143.84;90.83;45125.22;4992775;28;20589;-58
2023/08/02 02:45:17;;;;;;;6.07;5.67;;;;;;;-143.84;91.02;45090.97;4992792;28;20441;-58
2023/08/02 02:47:44;;;;;;;6.57;6.07;;;;;;;-143.84;91.12;45098.56;4992477;28;20510;-58
2023/08/02 02:50:11;;;;;;;5.80;5.40;;;;;;;-143.84;91.18;45090.97;4992432;28;20434;-58
2023/08/02 02:52:40;;;;;;;5.77;5.33;;;;;;;-143.84;90.91;45096.66;4992302;28;20459;-58
2023/08/02 02:55:08;;;;;;;8.50;6.13;;;;;;;-143.84;91.16;45098.56;4992018;28;20452;-58
2023/08/02 02:57:36;;;;;;;7.07;6.47;;;;;;;-143.84;91.26;45108.09;4992115;28;20465;-58
2023/08/02 03:00:05;;;;;;;9.67;5.90;;;;;;;-143.84;91.20;45090.97;4992336;28;20855;-60
2023/08/02 03:02:33;;;;;;;6.73;6.03;;;;;;;-143.84;91.63;45100.47;4991824;28;20544;-58
2023/08/02 03:05:00;;;;;;;5.80;5.40;;;;;;;-143.84;91.28;45117.63;4991531;28;20446;-58
2023/08/02 03:07:28;;;;;;;5.97;5.47;;;;;;;-143.84;91.43;45106.19;4990274;28;20485;-58
2023/08/02 03:09:55;;;;;;;15.83;6.40;;;;;;;-143.84;91.63;45117.63;4992144;28;20514;-58
2023/08/02 03:12:23;;;;;;;6.70;6.10;;;;;;;-143.84;91.67;45092.88;4991771;28;20442;-58
2023/08/02 03:14:51;;;;;;;6.60;6.10;;;;;;;-143.84;91.47;45110.00;4991551;28;20821;-58
2023/08/02 03:17:18;;;;;;;6.87;6.30;;;;;;;-143.84;91.57;45111.91;4991539;28;20454;-58
2023/08/02 03:19:47;;;;;;;6.80;6.10;;;;;;;-143.84;91.92;45089.06;4991380;28;20497;-58
2023/08/02 03:22:14;;;;;;;5.80;5.40;;;;;;;-143.84;91.75;45102.38;4991086;28;20846;-58
2023/08/02 03:24:41;;;;;;;6.30;5.80;;;;;;;-143.84;92.15;45098.56;4991398;28;20875;-58
2023/08/02 03:27:08;;;;;;;6.37;5.97;;;;;;;-143.84;92.03;45089.06;4991132;28;20862;-59
2023/08/02 03:29:35;;;;;;;6.33;5.83;;;;;;;-143.84;92.36;45117.63;4991162;28;20792;-58
2023/08/02 03:32:02;;;;;;;9.10;6.13;;;;;;;-143.84;92.03;45136.66;4991308;28;20449;-59
2023/08/02 03:34:29;;;;;;;6.90;6.30;;;;;;;-143.84;92.18;45117.63;4991274;28;20437;-59
2023/08/02 03:36:58;;;;;;;7.20;6.60;;;;;;;-143.84;91.89;45102.38;4991115;28;20509;-58
2023/08/02 03:39:27;;;;;;;6.17;5.57;;;;;;;-143.84;91.54;45075.72;4990818;28;20482;-59
2023/08/02 03:41:55;;;;;;;6.73;6.10;;;;;;;-143.84;90.60;45102.38;4990857;28;20945;-59
2023/08/02 03:44:22;;;;;;;5.63;5.23;;;;;;;-143.84;88.67;45083.34;4990674;28;20537;-59
2023/08/02 03:46:49;;;;;;;6.10;5.60;;;;;;;-143.84;85.36;45081.44;4990761;28;20444;-59
2023/08/02 03:49:16;;;;;;;5.40;5.00;;;;;;;-143.84;81.00;45073.81;4991035;28;20447;-59
2023/08/02 03:51:43;;;;;;;5.27;4.80;;;;;;;-143.84;78.32;45066.22;4990727;28;20962;-59
2023/08/02 03:54:12;;;;;;;5.23;4.47;;;;;;;-143.84;75.18;45050.97;4990841;28;20510;-59
2023/08/02 03:56:39;;;;;;;4.80;4.43;;;;;;;-143.84;74.76;45068.13;4990625;28;20462;-58
2023/08/02 03:59:06;;;;;;;7.00;3.93;;;;;;;-143.84;69.02;45050.97;4990523;28;20484;-59
2023/08/02 04:01:33;;;;;;;4.33;3.93;;;;;;;-143.84;66.26;45043.34;4990597;28;20854;-59
2023/08/02 04:04:00;;;;;;;4.50;4.10;;;;;;;-143.84;63.25;45022.41;4990767;28;20519;-59
2023/08/02 04:06:27;;;;;;;3.70;3.47;;;;;;;-143.84;61.80;45020.50;4990195;28;20552;-58
2023/08/02 04:08:55;;;;;;;3.70;2.90;;;;;;;-143.84;60.38;45018.59;4990527;28;20856;-59
2023/08/02 04:11:23;;;;;;;5.50;3.47;;;;;;;-143.84;59.16;44986.22;4990310;28;20474;-59
2023/08/02 04:13:51;;;;;;;3.20;2.47;;;;;;;-143.84;57.87;44984.31;4990335;28;20445;-59
2023/08/02 04:16:18;;;;;;;3.47;3.27;;;;;;;-143.84;56.99;45010.97;4990551;28;21186;-58
2023/08/02 04:18:45;;;;;;;4.87;2.90;;;;;;;-143.84;56.83;44986.22;4990087;28;20484;-59
2023/08/02 04:21:18;;;;;;;6.10;2.80;;;;;;;-143.84;56.31;44988.13;4990358;28;20445;-59
2023/08/02 04:23:45;;;;;;;3.20;2.60;;;;;;;-143.84;56.71;44980.53;4990371;28;20518;-59
2023/08/02 04:26:12;;;;;;;3.20;3.00;;;;;;;-143.84;55.10;44999.56;4990104;28;20924;-59
2023/08/02 04:28:41;;;;;;;2.70;2.60;;;;;;;-143.84;54.56;45001.47;4990198;28;20455;-58
2023/08/02 04:31:08;;;;;;;3.20;2.70;;;;;;;-143.84;53.77;45010.97;4990391;28;20456;-58
2023/08/02 04:33:35;;;;;;;6.50;2.63;;;;;;;-143.84;54.73;44997.66;4990505;28;20515;-58
2023/08/02 04:36:02;;;;;;;2.70;2.50;;;;;;;-143.84;53.66;44984.31;4990118;28;20522;-58
2023/08/02 04:38:29;;;;;;;4.50;2.53;;;;;;;-143.84;53.92;44980.53;4990508;28;20993;-58
2023/08/02 04:40:57;;;;;;;4.53;2.73;;;;;;;-143.84;52.05;44993.84;4990982;28;20448;-58
2023/08/02 04:43:24;;;;;;;4.90;2.47;;;;;;;-143.84;51.98;44991.94;4990571;28;20883;-58
2023/08/02 04:45:53;;;;;;;4.43;2.37;;;;;;;-143.84;51.13;44999.56;4990382;28;20445;-58
2023/08/02 04:48:20;;;;;;;2.87;2.60;;;;;;;-143.84;51.43;44957.66;4989923;28;20453;-58
2023/08/02 04:50:47;;;;;;;4.77;2.37;;;;;;;-143.84;51.43;44971.00;4989678;28;20449;-56
2023/08/02 04:53:14;;;;;;;3.93;2.83;;;;;;;-143.84;52.15;44988.13;4989377;28;20437;-55
2023/08/02 04:55:43;;;;;;;2.60;2.40;;;;;;;-143.84;52.92;44995.75;4989840;28;20453;-55
2023/08/02 04:58:10;;;;;;;5.50;2.43;;;;;;;-143.84;54.35;45026.22;4989397;28;20491;-55
2023/08/02 05:00:37;;;;;;;2.90;2.70;;;;;;;-143.84;54.66;45003.38;4989636;28;20527;-55
2023/08/02 05:03:06;;;;;;;3.40;2.90;;;;;;;-143.84;53.79;44991.94;4989230;28;20448;-55
2023/08/02 05:05:33;;;;;;;3.27;3.00;;;;;;;-143.84;55.83;44988.13;4988841;28;20504;-55
2023/08/02 05:08:01;;;;;;;2.50;2.40;;;;;;;-143.84;54.59;44990.03;4989308;28;20932;-55
2023/08/02 05:10:28;;;;;;;2.73;2.53;;;;;;;-143.84;54.49;45005.28;4989348;28;20450;-55
2023/08/02 05:12:55;;;;;;;6.47;3.10;;;;;;;-143.84;53.14;44971.00;4989374;28;20440;-55
2023/08/02 05:15:22;;;;;;;2.73;2.53;;;;;;;-143.84;52.76;44993.84;4989350;28;20441;-55
2023/08/02 05:17:49;;;;;;;3.47;3.23;;;;;;;-143.84;52.33;44961.47;4989414;28;20799;-55
2023/08/02 05:20:18;;;;;;;3.20;2.50;;;;;;;-143.84;51.70;44980.53;4989388;28;20522;-55
2023/08/02 05:22:45;;;;;;;2.90;2.70;;;;;;;-143.84;52.18;45010.97;4989226;28;20455;-55
2023/08/02 05:25:12;;;;;;;2.60;2.50;;;;;;;-143.84;51.72;45003.38;4989380;28;20923;-55
2023/08/02 05:27:39;;;;;;;2.63;2.50;;;;;;;-143.84;52.03;45001.47;4989347;28;20441;-55
2023/08/02 05:30:08;;;;;;;2.97;2.77;;;;;;;-143.84;52.98;44993.84;4989850;28;20443;-55
2023/08/02 05:32:35;;;;;;;7.03;2.77;;;;;;;-143.84;54.88;44984.31;4992933;28;20548;-55
2023/08/02 05:35:03;;;;;;;3.40;2.70;;;;;;;-143.84;54.60;44993.84;4992977;28;20452;-55
2023/08/02 05:37:31;;;;;;;2.90;2.70;;;;;;;-143.84;54.52;44980.53;4993142;28;20550;-55
2023/08/02 05:39:58;;;;;;;3.07;2.87;;;;;;;-143.84;53.08;44982.41;4992970;28;21084;-55
2023/08/02 05:42:25;;;;;;;3.30;2.80;;;;;;;-143.84;51.92;44974.81;4993101;28;20449;-55
2023/08/02 05:44:53;;;;;;;10.37;2.43;;;;;;;-143.84;51.20;44967.19;4993034;28;20497;-55
2023/08/02 05:47:20;;;;;;;2.20;2.10;;;;;;;-143.84;48.88;44971.00;4993074;28;20444;-55
2023/08/02 05:49:48;;;;;;;2.60;2.40;;;;;;;-143.84;50.45;44942.44;4992766;28;20440;-55
2023/08/02 05:52:15;;;;;;;6.60;2.50;;;;;;;-143.84;49.44;44967.19;4993016;28;20517;-55
2023/08/02 05:54:45;;;;;;;3.10;2.90;;;;;;;-143.84;49.76;44980.53;4992640;28;20888;-55
2023/08/02 05:57:12;;;;;;;5.97;2.90;;;;;;;-143.84;50.78;44974.81;4992709;28;20452;-55
2023/08/02 05:59:39;;;;;;;5.37;3.10;;;;;;;-143.84;50.46;44963.38;4992470;28;20540;-55
2023/08/02 06:02:07;;;;;;;2.60;2.47;;;;;;;-143.84;49.91;44965.28;4992668;28;20460;-55
2023/08/02 06:04:37;;;;;;;3.03;2.87;;;;;;;-143.84;49.99;44976.72;4992516;28;20499;-55
2023/08/02 06:07:05;;;;;;;7.17;2.50;;;;;;;-143.84;47.79;44955.75;4992188;28;20485;-55
2023/08/02 06:09:32;;;;;;;3.10;2.80;;;;;;;-143.84;49.12;44980.53;4992596;28;20511;-55
2023/08/02 06:12:01;;;;;;;2.83;2.63;;;;;;;-143.84;48.18;44967.19;4992342;28;20951;-55
2023/08/02 06:14:28;;;;;;;10.43;3.67;;;;;;;-143.84;49.65;44972.91;4992333;28;20848;-55
2023/08/02 06:16:55;;;;;;;2.73;2.60;;;;;;;-143.84;46.97;44953.88;4992007;28;20441;-55
2023/08/02 06:19:22;;;;;;;9.23;2.90;;;;;;;-143.84;45.91;44961.47;4992102;28;20986;-55
2023/08/02 06:21:49;;;;;;;5.70;2.53;;;;;;;-143.84;47.92;44976.72;4992148;28;20515;-55
2023/08/02 06:24:17;;;;;;;17.77;3.40;;;;;;;-143.84;48.97;45003.38;4992120;28;20445;-55
2023/08/02 06:26:44;;;;;;;5.03;4.60;;;;;;;-143.84;49.17;44950.06;4992115;28;20495;-55
2023/08/02 06:29:12;;;;;;;4.80;3.70;;;;;;;-143.84;45.83;44934.81;4992036;28;20872;-55
2023/08/02 06:31:39;;;;;;;16.03;4.47;;;;;;;-143.84;47.52;44957.66;4991789;28;20508;-55
2023/08/02 06:34:07;;;;;;;4.90;3.40;;;;;;;-143.84;46.81;44955.75;4991950;28;20441;-55
2023/08/02 06:36:38;;;;;;;4.03;3.63;;;;;;;-143.84;48.46;44971.00;4991973;28;20445;-55
2023/08/02 06:39:05;;;;;;;16.93;10.10;;;;;;;-143.84;47.79;44988.13;4991804;28;20484;-55
2023/08/02 06:41:32;;;;;;;11.33;5.40;;;;;;;-143.84;49.26;44972.91;4991826;28;20805;-55
2023/08/02 06:43:59;;;;;;;5.90;4.73;;;;;;;-143.84;48.67;44995.75;4991722;28;20499;-55
2023/08/02 06:46:29;;;;;;;7.43;4.67;;;;;;;-143.84;50.81;45005.28;4991787;28;21154;-55
2023/08/02 06:48:56;;;;;;;4.57;4.17;;;;;;;-143.84;48.27;44980.53;4991610;28;20935;-55
2023/08/02 06:51:23;;;;;;;7.20;4.47;;;;;;;-143.84;49.62;44972.91;4991813;28;20441;-55
2023/08/02 06:53:51;;;;;;;6.60;5.10;;;;;;;-143.84;50.71;44982.41;4991602;28;20502;-55
2023/08/02 06:56:19;;;;;;;9.37;5.57;;;;;;;-143.84;52.28;44991.94;4991750;28;20443;-55
2023/08/02 06:58:46;;;;;;;3.53;3.27;;;;;;;-143.84;50.35;44978.63;4991452;28;20579;-55
2023/08/02 07:01:14;;;;;;;4.03;3.77;;;;;;;-143.84;51.73;45009.09;4991194;28;20503;-55
2023/08/02 07:03:43;;;;;;;3.80;3.50;;;;;;;-143.84;49.26;44978.63;4991564;28;20460;-55
2023/08/02 07:06:11;;;;;;;4.40;2.80;;;;;;;-143.84;49.84;44969.09;4991224;28;20484;-55
2023/08/02 07:08:38;;;;;;;3.93;2.83;;;;;;;-143.84;47.88;44961.47;4991505;28;20452;-55
2023/08/02 07:11:05;;;;;;;3.53;2.70;;;;;;;-143.84;48.84;44957.66;4991218;28;20449;-55
2023/08/02 07:13:32;;;;;;;3.27;3.07;;;;;;;-143.84;48.07;45007.19;4991363;28;20436;-55
2023/08/02 07:15:59;;;;;;;3.30;2.53;;;;;;;-143.84;48.67;44997.66;4991106;28;21161;-55
2023/08/02 07:18:27;;;;;;;5.90;4.27;;;;;;;-143.84;49.71;44972.91;4991111;28;21093;-55
2023/08/02 07:20:55;;;;;;;4.37;3.10;;;;;;;-143.84;49.13;44980.53;4991330;28;20445;-55
2023/08/02 07:23:23;;;;;;;2.90;2.70;;;;;;;-143.84;49.68;44965.28;4991145;28;20492;-55
2023/08/02 07:25:50;;;;;;;4.60;4.10;;;;;;;-143.84;52.58;44991.94;4991203;28;20452;-55
2023/08/02 07:28:17;;;;;;;3.53;3.30;;;;;;;-143.84;54.43;44978.63;4991438;28;20874;-55
2023/08/02 07:30:45;;;;;;;4.00;3.60;;;;;;;-143.84;55.52;44953.88;4990953;28;20449;-55
2023/08/02 07:33:12;;;;;;;2.97;2.80;;;;;;;-143.84;53.76;44976.72;4991192;28;20467;-55
2023/08/02 07:35:39;;;;;;;2.90;2.37;;;;;;;-143.84;56.65;45001.47;4991016;28;20580;-55
2023/08/02 07:38:07;;;;;;;3.63;3.30;;;;;;;-143.84;55.57;44965.28;4990654;28;20844;-55
2023/08/02 07:40:35;;;;;;;3.00;2.80;;;;;;;-143.84;57.20;44984.31;4990781;28;20586;-55
2023/08/02 07:43:02;;;;;;;2.50;2.30;;;;;;;-143.84;54.44;44991.94;4990968;28;20508;-49
2023/08/02 07:45:29;;;;;;;3.10;2.90;;;;;;;-143.84;52.17;44990.03;4991072;28;20441;-49
2023/08/02 07:47:56;;;;;;;3.07;2.77;;;;;;;-143.84;55.20;44986.22;4990850;28;20466;-50
2023/08/02 07:50:23;;;;;;;3.23;3.03;;;;;;;-143.84;57.30;45018.59;4990766;28;20444;-50
2023/08/02 07:52:50;;;;;;;3.50;3.00;;;;;;;-143.84;56.17;44988.13;4990261;28;20451;-50
2023/08/02 07:55:19;;;;;;;4.77;2.60;;;;;;;-143.84;55.94;44953.88;4991081;28;20986;-50
2023/08/02 07:57:46;;;;;;;14.23;3.57;;;;;;;-143.84;57.20;44980.53;4990910;28;20533;-48
2023/08/02 08:00:14;;;;;;;4.80;2.60;;;;;;;-143.84;57.45;44988.13;4990478;28;20483;-50
2023/08/02 08:02:41;;;;;;;4.07;2.87;;;;;;;-143.84;58.33;45007.19;4990786;28;21089;-51
2023/08/02 08:05:09;;;;;;;2.80;2.60;;;;;;;-143.84;55.01;44965.28;4990347;28;20507;-50
2023/08/02 08:07:36;;;;;;;3.83;2.77;;;;;;;-143.84;54.95;44953.88;4990066;28;20991;-50
2023/08/02 08:10:04;;;;;;;3.97;2.40;;;;;;;-143.84;55.98;45007.19;4990404;28;20499;-54
2023/08/02 08:12:32;;;;;;;5.93;2.80;;;;;;;-143.84;58.78;45001.47;4990097;28;20444;-55
2023/08/02 08:14:59;;;;;;;3.20;3.00;;;;;;;-143.84;59.73;44974.81;4990241;28;20465;-55
2023/08/02 08:17:26;;;;;;;4.87;3.00;;;;;;;-143.84;60.42;45005.28;4990303;28;20444;-55
2023/08/02 08:19:53;;;;;;;6.30;3.10;;;;;;;-143.84;60.50;44993.84;4990285;28;20488;-55
2023/08/02 08:22:28;;;;;;;3.77;3.20;;;;;;;-143.84;60.69;45010.97;4990096;28;20495;-55
2023/08/02 08:24:55;;;;;;;3.97;3.40;;;;;;;-143.84;63.66;44991.94;4990410;28;20452;-55
2023/08/02 08:27:22;;;;;;;3.50;3.20;;;;;;;-143.84;63.76;44993.84;4989661;28;20477;-55
2023/08/02 08:29:50;;;;;;;3.50;3.20;;;;;;;-143.84;65.47;45009.09;4990076;28;20444;-55
2023/08/02 08:32:18;;;;;;;2.87;2.67;;;;;;;-143.84;65.13;44995.75;4989841;28;20491;-55
2023/08/02 08:34:45;;;;;;;4.23;3.83;;;;;;;-143.84;64.25;44982.41;4990024;28;20447;-55
2023/08/02 08:37:12;;;;;;;6.13;3.70;;;;;;;-143.84;66.08;45022.41;4989860;28;20460;-55
2023/08/02 08:39:39;;;;;;;3.40;3.10;;;;;;;-143.84;68.73;45009.09;4989681;28;20543;-55
2023/08/02 08:42:08;;;;;;;10.93;3.90;;;;;;;-143.84;69.32;45018.59;4989703;28;20446;-55
2023/08/02 08:44:38;;;;;;;5.37;3.60;;;;;;;-143.84;70.21;45022.41;4989648;28;20982;-55
2023/08/02 08:47:07;;;;;;;3.50;3.03;;;;;;;-143.84;68.93;45018.59;4989723;28;20444;-54
2023/08/02 08:49:34;;;;;;;3.50;3.20;;;;;;;-143.84;68.84;44982.41;4990019;28;20470;-55
2023/08/02 08:52:05;;;;;;;4.37;4.00;;;;;;;-143.84;68.59;44999.56;4990101;28;20952;-55
2023/08/02 08:54:33;;;;;;;4.10;3.80;;;;;;;-143.84;67.16;45001.47;4989670;28;20502;-55
2023/08/02 08:57:01;;;;;;;3.63;3.30;;;;;;;-143.84;68.33;45045.25;4989578;28;20519;-55
2023/08/02 08:59:29;;;;;;;7.60;3.90;;;;;;;-143.84;69.54;45022.41;4989484;28;20485;-55
2023/08/02 09:01:59;;;;;;;4.97;4.57;;;;;;;-143.84;70.04;45022.41;4989442;28;20444;-55
2023/08/02 09:04:31;;;;;;;13.47;4.67;;;;;;;-143.84;70.26;45014.78;4989702;28;20439;-55
2023/08/02 09:06:58;;;;;;;6.00;3.93;;;;;;;-143.84;70.11;45030.03;4992677;28;20497;-55
2023/08/02 09:09:25;;;;;;;7.40;4.20;;;;;;;-143.84;68.54;44999.56;4993658;28;20441;-54
2023/08/02 09:11:52;;;;;;;4.47;4.10;;;;;;;-143.84;68.52;45012.88;4993402;28;20844;-55
2023/08/02 09:14:20;;;;;;;5.87;4.60;;;;;;;-143.84;67.61;45035.75;4993428;28;20476;-55
2023/08/02 09:16:58;;;;;;;16.63;4.13;;;;;;;-143.84;67.65;45012.88;4993276;28;20452;-55
2023/08/02 09:19:27;;;;;;;5.13;4.73;;;;;;;-143.84;63.63;45039.53;4993624;28;20484;-55
2023/08/02 09:22:10;;;;;;;4.37;4.10;;;;;;;-143.84;65.52;45003.38;4993414;28;20531;-55
2023/08/02 09:24:39;;;;;;;6.43;4.40;;;;;;;-143.84;63.80;44990.03;4993192;28;20467;-55
2023/08/02 09:27:08;;;;;;;6.10;4.50;;;;;;;-143.84;64.95;44976.72;4993215;28;21188;-55
2023/08/02 09:29:47;;;;;;;8.47;4.23;;;;;;;-143.84;64.15;44988.13;4993226;28;20448;-55
2023/08/02 09:32:15;;;;;;;8.20;5.37;;;;;;;-143.84;65.25;45009.09;4992799;28;20448;-55
2023/08/02 09:34:43;;;;;;;7.73;4.53;;;;;;;-143.84;62.95;45026.22;4992757;28;20943;-54
2023/08/02 09:37:13;;;;;;;9.40;4.00;;;;;;;-143.84;62.52;44988.13;4992827;28;20512;-55
2023/08/02 09:39:41;;;;;;;4.40;3.53;;;;;;;-143.84;64.24;44999.56;4992804;28;20488;-49
2023/08/02 09:42:13;;;;;;;4.37;3.00;;;;;;;-143.84;61.58;44991.94;4993195;28;20485;-50
2023/08/02 09:44:42;;;;;;;3.73;3.30;;;;;;;-143.84;63.07;45026.22;4992949;28;20453;-49
2023/08/02 09:47:10;;;;;;;3.50;3.20;;;;;;;-143.84;60.70;45003.38;4993044;28;20970;-49
2023/08/02 09:49:38;;;;;;;3.10;2.80;;;;;;;-143.84;60.40;44991.94;4992974;28;20448;-49
2023/08/02 09:52:05;;;;;;;3.53;3.20;;;;;;;-143.84;59.72;45001.47;4993056;28;20963;-50
2023/08/02 09:54:34;;;;;;;3.20;2.90;;;;;;;-143.84;59.44;45005.28;4992938;28;20451;-49
2023/08/02 09:57:03;;;;;;;11.20;3.93;;;;;;;-143.84;60.19;44971.00;4993198;28;20447;-50
2023/08/02 09:59:31;;;;;;;7.03;3.27;;;;;;;-143.84;62.71;44997.66;4992843;28;20525;-49
2023/08/02 10:01:59;;;;;;;4.00;3.60;;;;;;;-143.84;61.81;44986.22;4992643;28;20452;-49
2023/08/02 10:04:28;;;;;;;4.23;3.10;;;;;;;-143.84;59.95;45009.09;4992943;28;20451;-49
2023/08/02 10:07:03;;;;;;;6.20;3.27;;;;;;;-143.84;60.07;44993.84;4992450;28;21006;-48
2023/08/02 10:09:34;;;;;;;3.53;2.87;;;;;;;-143.84;60.07;45039.53;4992450;28;20444;-49
2023/08/02 10:12:08;;;;;;;6.20;3.03;;;;;;;-143.84;57.82;44976.72;4992999;28;20733;-49
2023/08/02 10:14:36;;;;;;;2.97;2.77;;;;;;;-143.84;57.12;44986.22;4992705;28;20482;-49
2023/08/02 10:17:04;;;;;;;2.83;2.63;;;;;;;-143.84;59.53;44982.41;4991825;28;20444;-49
2023/08/02 10:19:34;;;;;;;2.77;2.50;;;;;;;-143.84;60.66;45001.47;4992375;28;20444;-49
2023/08/02 10:22:03;;;;;;;4.70;2.93;;;;;;;-143.84;62.14;44980.53;4992318;28;20449;-49
2023/08/02 10:24:30;;;;;;;4.60;2.90;;;;;;;-143.84;63.28;44995.75;4992462;28;20448;-49
2023/08/02 10:26:58;;;;;;;5.17;3.13;;;;;;;-143.84;62.44;44986.22;4992647;28;21210;-49
2023/08/02 10:29:28;;;;;;;6.17;3.23;;;;;;;-143.84;64.66;44988.13;4992663;28;20480;-49
2023/08/02 10:31:55;;;;;;;5.73;2.67;;;;;;;-143.84;65.64;45007.19;4992118;28;20507;-49
2023/08/02 10:34:46;;;;;;;4.43;3.27;;;;;;;-143.84;66.93;44991.94;4992501;28;20445;-49
2023/08/02 10:37:13;;;;;;;3.87;3.23;;;;;;;-143.84;68.05;44999.56;4991891;28;21017;-49
2023/08/02 10:39:55;;;;;;;7.93;3.10;;;;;;;-143.84;67.87;44997.66;4991756;28;20439;-49
2023/08/02 10:42:24;;;;;;;6.47;3.40;;;;;;;-143.84;68.04;45007.19;4992073;28;20449;-49
2023/08/02 10:45:15;;;;;;;4.80;3.27;;;;;;;-143.84;67.52;44978.63;4992135;28;20877;-49
2023/08/02 10:47:42;;;;;;;4.70;3.03;;;;;;;-143.84;68.26;44997.66;4992072;28;20478;-48
2023/08/02 10:50:48;;;;;;;5.17;3.03;;;;;;;-143.84;71.93;44986.22;4991873;28;20551;-50
2023/08/02 10:53:15;;;;;;;9.30;3.13;;;;;;;-143.84;68.92;44984.31;4991791;28;20511;-50
2023/08/02 10:56:04;;;;;;;10.17;3.97;;;;;;;-143.84;69.86;44991.94;4991837;28;20459;-49
2023/08/02 10:58:49;;;;;;;8.20;3.13;;;;;;;-143.84;70.28;45014.78;4991934;28;20447;-49
2023/08/02 11:01:18;;;;;;;4.90;3.13;;;;;;;-143.84;72.44;45001.47;4991977;28;20842;-48
2023/08/02 11:03:46;;;;;;;4.80;3.90;;;;;;;-143.84;73.33;45010.97;4991548;28;20457;-48
2023/08/02 11:06:30;;;;;;;4.43;3.53;;;;;;;-143.84;74.10;45031.94;4991415;28;21056;-48
2023/08/02 11:08:57;;;;;;;8.90;3.33;;;;;;;-143.84;72.29;44999.56;4991777;28;21151;-49
2023/08/02 11:11:33;;;;;;;7.07;3.23;;;;;;;-143.84;72.51;44986.22;4991788;28;21241;-49
2023/08/02 11:14:00;;;;;;;4.80;3.30;;;;;;;-143.84;73.55;44957.66;4991466;28;21062;-48
2023/08/02 11:16:29;;;;;;;7.77;3.33;;;;;;;-143.84;71.32;44995.75;4991313;28;20491;-49
2023/08/02 11:18:57;;;;;;;4.90;3.73;;;;;;;-143.84;72.03;45003.38;4991312;28;20444;-49
2023/08/02 11:21:24;;;;;;;11.83;2.73;;;;;;;-143.84;72.12;44991.94;4991027;28;20542;-48
2023/08/02 11:23:59;;;;;;;4.43;2.63;;;;;;;-143.84;70.74;44990.03;4991371;28;20497;-48